KAKH/AKH METAR and TAF weather

Enter ICAO airport designator
Station Type Date Time Source
KAKH METAR 2023/02/04 01:54 UTC NOAA

KAKH 040154Z AUTO 35006KT 10SM CLR 04/M10 A3036 RMK AO2 SLP285 T00391100


Station Type Date Time Source
KAKH Decoded METAR 2023/02/04 01:54 UTC NOAA

GASTONIA MUNICIPAL AIRPORT, NC, United States (KAKH) 35-12N 81-09W 243M
Feb 03, 2023 - 08:54 PM EST / 2023.02.04 0154 UTC
Wind: from the N (350 degrees) at 7 MPH (6 KT):0
Visibility: 10 mile(s):0
Sky conditions: clear
Temperature: 39.0 F (3.9 C)
Dew Point: 14.0 F (-10.0 C)
Relative Humidity: 35%
Pressure (altimeter): 30.36 in. Hg (1028 hPa)
ob: KAKH 040154Z AUTO 35006KT 10SM CLR 04/M10 A3036 RMK AO2 SLP285 T00391100
cycle: 2

Station Type Date Time Source
KAKH TAF UTC NOAA

Error!

Example: see airport list